sensor_id;sensor_type;location;lat;lon;timestamp;P1;durP1;ratioP1;P2;durP2;ratioP2
74373;SDS011;62809;51.090;-115.358;2022-08-21T00:00:33;5.30;;;4.00;;
74373;SDS011;62809;51.090;-115.358;2022-08-21T00:03:05;5.70;;;4.40;;
74373;SDS011;62809;51.090;-115.358;2022-08-21T00:05:38;5.60;;;4.30;;
74373;SDS011;62809;51.090;-115.358;2022-08-21T00:08:18;5.60;;;4.10;;
74373;SDS011;62809;51.090;-115.358;2022-08-21T00:10:49;5.20;;;3.80;;
74373;SDS011;62809;51.090;-115.358;2022-08-21T00:13:18;5.50;;;3.70;;
74373;SDS011;62809;51.090;-115.358;2022-08-21T00:15:46;5.30;;;3.80;;
74373;SDS011;62809;51.090;-115.358;2022-08-21T00:18:14;5.60;;;4.00;;
74373;SDS011;62809;51.090;-115.358;2022-08-21T00:20:44;5.60;;;4.10;;
74373;SDS011;62809;51.090;-115.358;2022-08-21T00:23:13;5.70;;;4.00;;
74373;SDS011;62809;51.090;-115.358;2022-08-21T00:25:43;5.50;;;4.20;;
74373;SDS011;62809;51.090;-115.358;2022-08-21T00:28:14;4.80;;;3.70;;
74373;SDS011;62809;51.090;-115.358;2022-08-21T00:30:43;5.80;;;4.30;;
74373;SDS011;62809;51.090;-115.358;2022-08-21T00:33:12;5.70;;;4.10;;
74373;SDS011;62809;51.090;-115.358;2022-08-21T00:35:42;6.00;;;4.00;;
74373;SDS011;62809;51.090;-115.358;2022-08-21T00:38:11;5.30;;;3.90;;
74373;SDS011;62809;51.090;-115.358;2022-08-21T00:40:44;5.60;;;4.00;;
74373;SDS011;62809;51.090;-115.358;2022-08-21T00:43:23;5.40;;;3.90;;
74373;SDS011;62809;51.090;-115.358;2022-08-21T00:45:55;6.00;;;4.40;;
74373;SDS011;62809;51.090;-115.358;2022-08-21T00:48:24;5.40;;;4.20;;
74373;SDS011;62809;51.090;-115.358;2022-08-21T00:50:57;5.20;;;4.10;;
74373;SDS011;62809;51.090;-115.358;2022-08-21T00:53:30;5.30;;;4.00;;
74373;SDS011;62809;51.090;-115.358;2022-08-21T00:56:00;5.90;;;4.40;;
74373;SDS011;62809;51.090;-115.358;2022-08-21T00:58:30;5.90;;;4.50;;
74373;SDS011;62809;51.090;-115.358;2022-08-21T01:01:00;5.90;;;4.30;;
74373;SDS011;62809;51.090;-115.358;2022-08-21T01:03:29;5.60;;;3.90;;
74373;SDS011;62809;51.090;-115.358;2022-08-21T01:05:59;5.90;;;4.40;;
74373;SDS011;62809;51.090;-115.358;2022-08-21T01:08:30;5.70;;;4.20;;
74373;SDS011;62809;51.090;-115.358;2022-08-21T01:10:59;5.80;;;4.40;;
74373;SDS011;62809;51.090;-115.358;2022-08-21T01:13:31;6.30;;;4.60;;
74373;SDS011;62809;51.090;-115.358;2022-08-21T01:16:04;5.90;;;4.30;;
74373;SDS011;62809;51.090;-115.358;2022-08-21T01:18:36;5.80;;;4.20;;
74373;SDS011;62809;51.090;-115.358;2022-08-21T01:21:10;6.30;;;4.50;;
74373;SDS011;62809;51.090;-115.358;2022-08-21T01:23:45;6.30;;;4.60;;
74373;SDS011;62809;51.090;-115.358;2022-08-21T01:26:17;7.50;;;4.70;;
74373;SDS011;62809;51.090;-115.358;2022-08-21T01:29:11;7.00;;;4.80;;
74373;SDS011;62809;51.090;-115.358;2022-08-21T01:31:46;6.90;;;4.40;;
74373;SDS011;62809;51.090;-115.358;2022-08-21T01:34:15;6.20;;;4.60;;
74373;SDS011;62809;51.090;-115.358;2022-08-21T01:36:44;6.80;;;4.60;;
74373;SDS011;62809;51.090;-115.358;2022-08-21T01:39:14;7.00;;;4.60;;
74373;SDS011;62809;51.090;-115.358;2022-08-21T01:41:41;6.60;;;4.60;;
74373;SDS011;62809;51.090;-115.358;2022-08-21T01:44:09;6.90;;;5.00;;
74373;SDS011;62809;51.090;-115.358;2022-08-21T01:46:36;6.70;;;4.70;;
74373;SDS011;62809;51.090;-115.358;2022-08-21T01:49:04;6.40;;;4.70;;
74373;SDS011;62809;51.090;-115.358;2022-08-21T01:51:31;7.30;;;5.00;;
74373;SDS011;62809;51.090;-115.358;2022-08-21T01:53:58;6.20;;;4.50;;
74373;SDS011;62809;51.090;-115.358;2022-08-21T01:56:26;7.10;;;5.00;;
74373;SDS011;62809;51.090;-115.358;2022-08-21T01:58:54;7.10;;;4.70;;
74373;SDS011;62809;51.090;-115.358;2022-08-21T02:01:21;7.00;;;5.00;;
74373;SDS011;62809;51.090;-115.358;2022-08-21T02:03:48;7.20;;;5.20;;
74373;SDS011;62809;51.090;-115.358;2022-08-21T02:06:17;7.10;;;5.00;;
74373;SDS011;62809;51.090;-115.358;2022-08-21T02:08:45;7.90;;;5.40;;
74373;SDS011;62809;51.090;-115.358;2022-08-21T02:11:17;7.40;;;5.10;;
74373;SDS011;62809;51.090;-115.358;2022-08-21T02:13:45;7.40;;;5.00;;
74373;SDS011;62809;51.090;-115.358;2022-08-21T02:16:12;8.50;;;5.50;;
74373;SDS011;62809;51.090;-115.358;2022-08-21T02:18:41;6.90;;;5.10;;
74373;SDS011;62809;51.090;-115.358;2022-08-21T02:21:09;7.00;;;4.90;;
74373;SDS011;62809;51.090;-115.358;2022-08-21T02:23:40;7.40;;;5.10;;
74373;SDS011;62809;51.090;-115.358;2022-08-21T02:26:10;7.50;;;5.10;;
74373;SDS011;62809;51.090;-115.358;2022-08-21T02:28:39;7.10;;;5.30;;
74373;SDS011;62809;51.090;-115.358;2022-08-21T02:31:06;7.20;;;5.30;;
74373;SDS011;62809;51.090;-115.358;2022-08-21T02:33:34;7.20;;;4.90;;
74373;SDS011;62809;51.090;-115.358;2022-08-21T02:36:04;8.70;;;5.00;;
74373;SDS011;62809;51.090;-115.358;2022-08-21T02:38:34;8.30;;;5.60;;
74373;SDS011;62809;51.090;-115.358;2022-08-21T02:41:08;7.40;;;5.00;;
74373;SDS011;62809;51.090;-115.358;2022-08-21T02:43:38;7.90;;;5.30;;
74373;SDS011;62809;51.090;-115.358;2022-08-21T02:46:12;7.60;;;5.40;;
74373;SDS011;62809;51.090;-115.358;2022-08-21T02:48:42;7.10;;;5.20;;
74373;SDS011;62809;51.090;-115.358;2022-08-21T02:51:14;8.00;;;5.50;;
74373;SDS011;62809;51.090;-115.358;2022-08-21T02:53:45;8.20;;;5.50;;
74373;SDS011;62809;51.090;-115.358;2022-08-21T02:56:17;7.70;;;5.30;;
74373;SDS011;62809;51.090;-115.358;2022-08-21T02:58:50;8.20;;;5.70;;
74373;SDS011;62809;51.090;-115.358;2022-08-21T03:01:20;8.40;;;5.70;;
74373;SDS011;62809;51.090;-115.358;2022-08-21T03:03:51;8.70;;;5.40;;
74373;SDS011;62809;51.090;-115.358;2022-08-21T03:06:21;7.60;;;5.00;;
74373;SDS011;62809;51.090;-115.358;2022-08-21T03:08:51;7.50;;;5.00;;
74373;SDS011;62809;51.090;-115.358;2022-08-21T03:11:18;7.70;;;5.20;;
74373;SDS011;62809;51.090;-115.358;2022-08-21T03:13:49;7.40;;;5.50;;
74373;SDS011;62809;51.090;-115.358;2022-08-21T03:16:16;7.90;;;5.50;;
74373;SDS011;62809;51.090;-115.358;2022-08-21T03:18:44;7.50;;;5.40;;
74373;SDS011;62809;51.090;-115.358;2022-08-21T03:21:13;7.80;;;5.60;;
74373;SDS011;62809;51.090;-115.358;2022-08-21T03:23:42;8.40;;;5.40;;
74373;SDS011;62809;51.090;-115.358;2022-08-21T03:26:12;7.10;;;5.20;;
74373;SDS011;62809;51.090;-115.358;2022-08-21T03:28:40;9.00;;;5.40;;
74373;SDS011;62809;51.090;-115.358;2022-08-21T03:31:09;7.90;;;5.50;;
74373;SDS011;62809;51.090;-115.358;2022-08-21T03:33:39;8.30;;;5.50;;
74373;SDS011;62809;51.090;-115.358;2022-08-21T03:36:07;8.30;;;5.70;;
74373;SDS011;62809;51.090;-115.358;2022-08-21T03:38:38;7.00;;;5.20;;
74373;SDS011;62809;51.090;-115.358;2022-08-21T03:41:06;8.70;;;5.50;;
74373;SDS011;62809;51.090;-115.358;2022-08-21T03:43:34;8.10;;;5.60;;
74373;SDS011;62809;51.090;-115.358;2022-08-21T03:46:03;7.60;;;5.30;;
74373;SDS011;62809;51.090;-115.358;2022-08-21T03:48:33;7.20;;;5.50;;
74373;SDS011;62809;51.090;-115.358;2022-08-21T03:51:02;8.90;;;6.00;;
74373;SDS011;62809;51.090;-115.358;2022-08-21T03:53:35;7.50;;;5.40;;
74373;SDS011;62809;51.090;-115.358;2022-08-21T03:56:04;8.40;;;5.80;;
74373;SDS011;62809;51.090;-115.358;2022-08-21T03:58:35;8.90;;;5.80;;
74373;SDS011;62809;51.090;-115.358;2022-08-21T04:01:06;7.90;;;5.60;;
74373;SDS011;62809;51.090;-115.358;2022-08-21T04:03:36;8.30;;;5.70;;
74373;SDS011;62809;51.090;-115.358;2022-08-21T04:06:04;7.50;;;5.20;;
74373;SDS011;62809;51.090;-115.358;2022-08-21T04:08:33;8.10;;;5.50;;
74373;SDS011;62809;51.090;-115.358;2022-08-21T04:11:02;7.90;;;5.60;;
74373;SDS011;62809;51.090;-115.358;2022-08-21T04:13:31;9.00;;;6.00;;
74373;SDS011;62809;51.090;-115.358;2022-08-21T04:15:58;8.40;;;5.70;;
74373;SDS011;62809;51.090;-115.358;2022-08-21T04:18:26;8.10;;;5.30;;
74373;SDS011;62809;51.090;-115.358;2022-08-21T04:20:54;8.20;;;5.40;;
74373;SDS011;62809;51.090;-115.358;2022-08-21T04:23:23;8.10;;;5.80;;
74373;SDS011;62809;51.090;-115.358;2022-08-21T04:25:53;7.40;;;5.40;;
74373;SDS011;62809;51.090;-115.358;2022-08-21T04:28:25;8.50;;;5.90;;
74373;SDS011;62809;51.090;-115.358;2022-08-21T04:30:54;7.60;;;5.50;;
74373;SDS011;62809;51.090;-115.358;2022-08-21T04:33:22;8.50;;;5.60;;
74373;SDS011;62809;51.090;-115.358;2022-08-21T04:35:50;7.70;;;5.70;;
74373;SDS011;62809;51.090;-115.358;2022-08-21T04:38:19;9.20;;;5.70;;
74373;SDS011;62809;51.090;-115.358;2022-08-21T04:40:48;7.90;;;5.30;;
74373;SDS011;62809;51.090;-115.358;2022-08-21T04:43:20;8.90;;;5.90;;
74373;SDS011;62809;51.090;-115.358;2022-08-21T04:45:52;7.20;;;5.20;;
74373;SDS011;62809;51.090;-115.358;2022-08-21T04:48:23;7.40;;;5.20;;
74373;SDS011;62809;51.090;-115.358;2022-08-21T04:50:59;8.20;;;5.70;;
74373;SDS011;62809;51.090;-115.358;2022-08-21T04:53:34;8.00;;;5.40;;
74373;SDS011;62809;51.090;-115.358;2022-08-21T04:56:25;8.30;;;5.60;;
74373;SDS011;62809;51.090;-115.358;2022-08-21T04:58:59;8.00;;;5.50;;
74373;SDS011;62809;51.090;-115.358;2022-08-21T05:01:34;8.00;;;5.20;;
74373;SDS011;62809;51.090;-115.358;2022-08-21T05:04:06;8.50;;;5.70;;
74373;SDS011;62809;51.090;-115.358;2022-08-21T05:06:37;7.70;;;5.20;;
74373;SDS011;62809;51.090;-115.358;2022-08-21T05:09:09;7.60;;;5.30;;
74373;SDS011;62809;51.090;-115.358;2022-08-21T05:11:42;8.30;;;5.70;;
74373;SDS011;62809;51.090;-115.358;2022-08-21T05:14:11;7.30;;;5.30;;
74373;SDS011;62809;51.090;-115.358;2022-08-21T05:16:44;7.10;;;5.50;;
74373;SDS011;62809;51.090;-115.358;2022-08-21T05:19:14;6.80;;;5.30;;
74373;SDS011;62809;51.090;-115.358;2022-08-21T05:21:44;7.30;;;5.10;;
74373;SDS011;62809;51.090;-115.358;2022-08-21T05:24:13;7.50;;;5.00;;
74373;SDS011;62809;51.090;-115.358;2022-08-21T05:26:41;7.50;;;5.30;;
74373;SDS011;62809;51.090;-115.358;2022-08-21T05:29:12;7.10;;;5.30;;
74373;SDS011;62809;51.090;-115.358;2022-08-21T05:31:43;8.50;;;5.50;;
74373;SDS011;62809;51.090;-115.358;2022-08-21T05:34:14;7.60;;;5.50;;
74373;SDS011;62809;51.090;-115.358;2022-08-21T05:36:49;7.60;;;5.10;;
74373;SDS011;62809;51.090;-115.358;2022-08-21T05:39:18;7.30;;;4.90;;
74373;SDS011;62809;51.090;-115.358;2022-08-21T05:41:45;7.20;;;5.30;;
74373;SDS011;62809;51.090;-115.358;2022-08-21T05:44:13;6.70;;;5.00;;
74373;SDS011;62809;51.090;-115.358;2022-08-21T05:46:40;7.70;;;5.20;;
74373;SDS011;62809;51.090;-115.358;2022-08-21T05:49:08;7.90;;;5.30;;
74373;SDS011;62809;51.090;-115.358;2022-08-21T05:51:36;7.50;;;5.20;;
74373;SDS011;62809;51.090;-115.358;2022-08-21T05:54:05;6.80;;;4.90;;
74373;SDS011;62809;51.090;-115.358;2022-08-21T05:56:33;6.30;;;4.80;;
74373;SDS011;62809;51.090;-115.358;2022-08-21T05:59:01;6.20;;;4.70;;
74373;SDS011;62809;51.090;-115.358;2022-08-21T06:01:31;6.50;;;4.50;;
74373;SDS011;62809;51.090;-115.358;2022-08-21T06:03:58;6.60;;;5.10;;
74373;SDS011;62809;51.090;-115.358;2022-08-21T06:06:26;6.60;;;4.80;;
74373;SDS011;62809;51.090;-115.358;2022-08-21T06:08:53;6.90;;;4.80;;
74373;SDS011;62809;51.090;-115.358;2022-08-21T06:11:20;6.80;;;5.20;;
74373;SDS011;62809;51.090;-115.358;2022-08-21T06:13:47;6.20;;;4.50;;
74373;SDS011;62809;51.090;-115.358;2022-08-21T06:16:16;6.30;;;4.80;;
74373;SDS011;62809;51.090;-115.358;2022-08-21T06:18:45;7.00;;;4.90;;
74373;SDS011;62809;51.090;-115.358;2022-08-21T06:21:13;7.10;;;4.70;;
74373;SDS011;62809;51.090;-115.358;2022-08-21T06:23:41;6.60;;;4.80;;
74373;SDS011;62809;51.090;-115.358;2022-08-21T06:26:09;6.60;;;4.80;;
74373;SDS011;62809;51.090;-115.358;2022-08-21T06:28:40;6.80;;;5.00;;
74373;SDS011;62809;51.090;-115.358;2022-08-21T06:31:19;5.60;;;4.40;;
74373;SDS011;62809;51.090;-115.358;2022-08-21T06:33:48;6.80;;;5.10;;
74373;SDS011;62809;51.090;-115.358;2022-08-21T06:36:16;6.80;;;4.80;;
74373;SDS011;62809;51.090;-115.358;2022-08-21T06:38:49;6.60;;;4.50;;
74373;SDS011;62809;51.090;-115.358;2022-08-21T06:41:16;7.10;;;4.80;;
74373;SDS011;62809;51.090;-115.358;2022-08-21T06:43:45;6.40;;;4.80;;
74373;SDS011;62809;51.090;-115.358;2022-08-21T06:46:12;7.20;;;4.90;;
74373;SDS011;62809;51.090;-115.358;2022-08-21T06:48:39;6.90;;;5.00;;
74373;SDS011;62809;51.090;-115.358;2022-08-21T06:51:06;6.40;;;4.60;;
74373;SDS011;62809;51.090;-115.358;2022-08-21T06:53:33;7.10;;;5.20;;
74373;SDS011;62809;51.090;-115.358;2022-08-21T06:56:01;6.10;;;4.70;;
74373;SDS011;62809;51.090;-115.358;2022-08-21T06:58:31;8.40;;;4.60;;
74373;SDS011;62809;51.090;-115.358;2022-08-21T07:01:02;6.90;;;5.00;;
74373;SDS011;62809;51.090;-115.358;2022-08-21T07:03:34;6.40;;;4.70;;
74373;SDS011;62809;51.090;-115.358;2022-08-21T07:06:05;6.00;;;4.50;;
74373;SDS011;62809;51.090;-115.358;2022-08-21T07:08:33;6.50;;;4.60;;
74373;SDS011;62809;51.090;-115.358;2022-08-21T07:11:05;5.90;;;4.50;;
74373;SDS011;62809;51.090;-115.358;2022-08-21T07:13:36;6.10;;;4.50;;
74373;SDS011;62809;51.090;-115.358;2022-08-21T07:16:03;6.20;;;4.50;;
74373;SDS011;62809;51.090;-115.358;2022-08-21T07:18:31;7.00;;;5.00;;
74373;SDS011;62809;51.090;-115.358;2022-08-21T07:20:58;6.50;;;4.60;;
74373;SDS011;62809;51.090;-115.358;2022-08-21T07:23:32;6.70;;;4.80;;
74373;SDS011;62809;51.090;-115.358;2022-08-21T07:26:03;6.10;;;4.50;;
74373;SDS011;62809;51.090;-115.358;2022-08-21T07:28:32;5.70;;;4.50;;
74373;SDS011;62809;51.090;-115.358;2022-08-21T07:31:03;6.00;;;4.40;;
74373;SDS011;62809;51.090;-115.358;2022-08-21T07:33:34;6.40;;;4.70;;
74373;SDS011;62809;51.090;-115.358;2022-08-21T07:36:02;6.30;;;4.50;;
74373;SDS011;62809;51.090;-115.358;2022-08-21T07:38:31;6.30;;;4.90;;
74373;SDS011;62809;51.090;-115.358;2022-08-21T07:41:00;6.80;;;4.60;;
74373;SDS011;62809;51.090;-115.358;2022-08-21T07:43:30;5.80;;;4.60;;
74373;SDS011;62809;51.090;-115.358;2022-08-21T07:45:59;7.80;;;4.80;;
74373;SDS011;62809;51.090;-115.358;2022-08-21T07:48:31;5.90;;;4.50;;
74373;SDS011;62809;51.090;-115.358;2022-08-21T07:51:02;6.70;;;5.10;;
74373;SDS011;62809;51.090;-115.358;2022-08-21T07:53:38;5.80;;;4.30;;
74373;SDS011;62809;51.090;-115.358;2022-08-21T07:56:06;6.60;;;4.90;;
74373;SDS011;62809;51.090;-115.358;2022-08-21T07:58:36;5.90;;;4.50;;
74373;SDS011;62809;51.090;-115.358;2022-08-21T08:01:06;6.20;;;4.50;;
74373;SDS011;62809;51.090;-115.358;2022-08-21T08:03:33;6.30;;;4.50;;
74373;SDS011;62809;51.090;-115.358;2022-08-21T08:06:01;6.60;;;4.70;;
74373;SDS011;62809;51.090;-115.358;2022-08-21T08:08:31;5.60;;;4.40;;
74373;SDS011;62809;51.090;-115.358;2022-08-21T08:10:59;5.90;;;4.60;;
74373;SDS011;62809;51.090;-115.358;2022-08-21T08:13:29;5.70;;;4.40;;
74373;SDS011;62809;51.090;-115.358;2022-08-21T08:15:56;6.20;;;4.80;;
74373;SDS011;62809;51.090;-115.358;2022-08-21T08:18:23;6.70;;;4.70;;
74373;SDS011;62809;51.090;-115.358;2022-08-21T08:20:53;6.20;;;4.70;;
74373;SDS011;62809;51.090;-115.358;2022-08-21T08:23:23;6.70;;;4.60;;
74373;SDS011;62809;51.090;-115.358;2022-08-21T08:25:53;5.90;;;4.30;;
74373;SDS011;62809;51.090;-115.358;2022-08-21T08:28:22;6.30;;;4.50;;
74373;SDS011;62809;51.090;-115.358;2022-08-21T08:30:49;6.30;;;4.70;;
74373;SDS011;62809;51.090;-115.358;2022-08-21T08:33:17;6.00;;;4.20;;
74373;SDS011;62809;51.090;-115.358;2022-08-21T08:35:47;6.10;;;4.70;;
74373;SDS011;62809;51.090;-115.358;2022-08-21T08:38:19;6.20;;;4.60;;
74373;SDS011;62809;51.090;-115.358;2022-08-21T08:40:55;5.70;;;4.50;;
74373;SDS011;62809;51.090;-115.358;2022-08-21T08:43:54;5.60;;;4.30;;
74373;SDS011;62809;51.090;-115.358;2022-08-21T08:46:47;7.30;;;4.80;;
74373;SDS011;62809;51.090;-115.358;2022-08-21T08:49:32;6.00;;;4.40;;
74373;SDS011;62809;51.090;-115.358;2022-08-21T08:52:20;6.80;;;4.40;;
74373;SDS011;62809;51.090;-115.358;2022-08-21T08:55:12;7.50;;;4.50;;
74373;SDS011;62809;51.090;-115.358;2022-08-21T08:57:48;5.70;;;4.60;;
74373;SDS011;62809;51.090;-115.358;2022-08-21T09:00:20;5.50;;;4.30;;
74373;SDS011;62809;51.090;-115.358;2022-08-21T09:02:51;6.60;;;4.70;;
74373;SDS011;62809;51.090;-115.358;2022-08-21T09:05:28;6.00;;;4.50;;
74373;SDS011;62809;51.090;-115.358;2022-08-21T09:08:31;6.20;;;4.30;;
74373;SDS011;62809;51.090;-115.358;2022-08-21T09:16:49;6.60;;;4.40;;
74373;SDS011;62809;51.090;-115.358;2022-08-21T09:19:53;6.20;;;4.60;;
74373;SDS011;62809;51.090;-115.358;2022-08-21T09:25:26;5.40;;;4.20;;
74373;SDS011;62809;51.090;-115.358;2022-08-21T09:27:58;6.60;;;4.50;;
74373;SDS011;62809;51.090;-115.358;2022-08-21T09:30:32;6.00;;;4.40;;
74373;SDS011;62809;51.090;-115.358;2022-08-21T09:33:01;6.30;;;4.40;;
74373;SDS011;62809;51.090;-115.358;2022-08-21T09:35:28;5.70;;;4.70;;
74373;SDS011;62809;51.090;-115.358;2022-08-21T09:38:04;6.50;;;4.70;;
74373;SDS011;62809;51.090;-115.358;2022-08-21T09:40:41;6.50;;;4.80;;
74373;SDS011;62809;51.090;-115.358;2022-08-21T09:43:21;6.00;;;4.40;;
74373;SDS011;62809;51.090;-115.358;2022-08-21T09:46:09;5.40;;;4.30;;
74373;SDS011;62809;51.090;-115.358;2022-08-21T09:48:50;5.80;;;4.40;;
74373;SDS011;62809;51.090;-115.358;2022-08-21T09:56:34;6.90;;;4.30;;
74373;SDS011;62809;51.090;-115.358;2022-08-21T09:59:31;5.70;;;4.10;;
74373;SDS011;62809;51.090;-115.358;2022-08-21T10:02:02;6.10;;;4.60;;
74373;SDS011;62809;51.090;-115.358;2022-08-21T10:04:53;6.20;;;4.40;;
74373;SDS011;62809;51.090;-115.358;2022-08-21T10:07:29;5.60;;;4.30;;
74373;SDS011;62809;51.090;-115.358;2022-08-21T10:10:13;4.80;;;3.90;;
74373;SDS011;62809;51.090;-115.358;2022-08-21T10:16:12;6.10;;;4.10;;
74373;SDS011;62809;51.090;-115.358;2022-08-21T10:21:48;5.50;;;4.20;;
74373;SDS011;62809;51.090;-115.358;2022-08-21T10:24:32;6.10;;;4.70;;
74373;SDS011;62809;51.090;-115.358;2022-08-21T10:27:18;5.80;;;4.30;;
74373;SDS011;62809;51.090;-115.358;2022-08-21T10:30:02;6.00;;;4.40;;
74373;SDS011;62809;51.090;-115.358;2022-08-21T10:32:51;6.30;;;4.70;;
74373;SDS011;62809;51.090;-115.358;2022-08-21T10:44:55;5.50;;;4.10;;
74373;SDS011;62809;51.090;-115.358;2022-08-21T10:47:51;4.90;;;3.90;;
74373;SDS011;62809;51.090;-115.358;2022-08-21T10:56:08;5.90;;;4.40;;
74373;SDS011;62809;51.090;-115.358;2022-08-21T10:58:45;5.50;;;4.10;;
74373;SDS011;62809;51.090;-115.358;2022-08-21T11:01:23;5.30;;;4.30;;
74373;SDS011;62809;51.090;-115.358;2022-08-21T11:04:10;6.60;;;4.30;;
74373;SDS011;62809;51.090;-115.358;2022-08-21T11:07:11;5.30;;;3.90;;
74373;SDS011;62809;51.090;-115.358;2022-08-21T11:09:48;6.10;;;4.70;;
74373;SDS011;62809;51.090;-115.358;2022-08-21T11:12:34;6.10;;;4.20;;
74373;SDS011;62809;51.090;-115.358;2022-08-21T11:18:24;5.90;;;4.00;;
74373;SDS011;62809;51.090;-115.358;2022-08-21T11:23:50;6.00;;;4.00;;
74373;SDS011;62809;51.090;-115.358;2022-08-21T11:26:49;5.70;;;4.30;;
74373;SDS011;62809;51.090;-115.358;2022-08-21T11:29:31;5.70;;;4.40;;
74373;SDS011;62809;51.090;-115.358;2022-08-21T11:43:47;5.80;;;4.40;;
74373;SDS011;62809;51.090;-115.358;2022-08-21T11:46:49;6.70;;;4.50;;
74373;SDS011;62809;51.090;-115.358;2022-08-21T11:58:17;6.10;;;4.20;;
74373;SDS011;62809;51.090;-115.358;2022-08-21T12:01:00;5.80;;;4.40;;
74373;SDS011;62809;51.090;-115.358;2022-08-21T12:03:40;5.90;;;4.20;;
74373;SDS011;62809;51.090;-115.358;2022-08-21T12:06:13;6.20;;;4.70;;
74373;SDS011;62809;51.090;-115.358;2022-08-21T12:08:44;6.10;;;4.20;;
74373;SDS011;62809;51.090;-115.358;2022-08-21T12:16:40;5.90;;;4.60;;
74373;SDS011;62809;51.090;-115.358;2022-08-21T12:22:10;5.80;;;4.30;;
74373;SDS011;62809;51.090;-115.358;2022-08-21T12:24:53;5.60;;;4.20;;
74373;SDS011;62809;51.090;-115.358;2022-08-21T12:33:29;5.60;;;4.20;;
74373;SDS011;62809;51.090;-115.358;2022-08-21T12:36:21;6.30;;;4.50;;
74373;SDS011;62809;51.090;-115.358;2022-08-21T12:38:59;6.00;;;4.50;;
74373;SDS011;62809;51.090;-115.358;2022-08-21T12:44:24;5.80;;;4.60;;
74373;SDS011;62809;51.090;-115.358;2022-08-21T12:47:06;5.80;;;4.30;;
74373;SDS011;62809;51.090;-115.358;2022-08-21T12:52:33;5.50;;;4.30;;
74373;SDS011;62809;51.090;-115.358;2022-08-21T12:55:11;6.40;;;4.20;;
74373;SDS011;62809;51.090;-115.358;2022-08-21T12:57:42;6.00;;;4.60;;
74373;SDS011;62809;51.090;-115.358;2022-08-21T13:00:12;6.60;;;4.50;;
74373;SDS011;62809;51.090;-115.358;2022-08-21T13:02:47;6.40;;;4.80;;
74373;SDS011;62809;51.090;-115.358;2022-08-21T13:05:32;5.50;;;4.20;;
74373;SDS011;62809;51.090;-115.358;2022-08-21T13:08:06;6.20;;;4.60;;
74373;SDS011;62809;51.090;-115.358;2022-08-21T13:10:41;5.90;;;4.60;;
74373;SDS011;62809;51.090;-115.358;2022-08-21T13:13:24;5.40;;;4.20;;
74373;SDS011;62809;51.090;-115.358;2022-08-21T13:16:04;6.00;;;4.50;;
74373;SDS011;62809;51.090;-115.358;2022-08-21T13:18:35;5.90;;;4.80;;
74373;SDS011;62809;51.090;-115.358;2022-08-21T13:21:17;5.80;;;4.60;;
74373;SDS011;62809;51.090;-115.358;2022-08-21T13:23:46;6.50;;;4.80;;
74373;SDS011;62809;51.090;-115.358;2022-08-21T13:26:19;5.80;;;4.60;;
74373;SDS011;62809;51.090;-115.358;2022-08-21T13:28:49;6.40;;;4.90;;
74373;SDS011;62809;51.090;-115.358;2022-08-21T13:31:20;5.80;;;4.40;;
74373;SDS011;62809;51.090;-115.358;2022-08-21T13:33:55;6.00;;;4.40;;
74373;SDS011;62809;51.090;-115.358;2022-08-21T13:36:28;6.20;;;4.60;;
74373;SDS011;62809;51.090;-115.358;2022-08-21T13:38:59;6.20;;;4.80;;
74373;SDS011;62809;51.090;-115.358;2022-08-21T13:41:32;6.10;;;4.70;;
74373;SDS011;62809;51.090;-115.358;2022-08-21T13:44:14;6.10;;;4.50;;
74373;SDS011;62809;51.090;-115.358;2022-08-21T13:46:45;6.30;;;4.70;;
74373;SDS011;62809;51.090;-115.358;2022-08-21T13:49:18;6.10;;;4.80;;
74373;SDS011;62809;51.090;-115.358;2022-08-21T13:51:49;6.00;;;4.30;;
74373;SDS011;62809;51.090;-115.358;2022-08-21T13:54:29;6.60;;;4.90;;
74373;SDS011;62809;51.090;-115.358;2022-08-21T13:57:15;5.70;;;4.50;;
74373;SDS011;62809;51.090;-115.358;2022-08-21T13:59:45;5.70;;;4.60;;
74373;SDS011;62809;51.090;-115.358;2022-08-21T14:02:17;6.20;;;4.80;;
74373;SDS011;62809;51.090;-115.358;2022-08-21T14:05:01;6.40;;;5.00;;
74373;SDS011;62809;51.090;-115.358;2022-08-21T14:07:39;5.90;;;4.40;;
74373;SDS011;62809;51.090;-115.358;2022-08-21T14:10:16;6.00;;;4.50;;
74373;SDS011;62809;51.090;-115.358;2022-08-21T14:12:50;5.40;;;4.00;;
74373;SDS011;62809;51.090;-115.358;2022-08-21T14:15:24;5.60;;;4.10;;
74373;SDS011;62809;51.090;-115.358;2022-08-21T14:17:55;6.00;;;4.60;;
74373;SDS011;62809;51.090;-115.358;2022-08-21T14:20:43;5.80;;;4.50;;
74373;SDS011;62809;51.090;-115.358;2022-08-21T14:23:12;6.00;;;4.60;;
74373;SDS011;62809;51.090;-115.358;2022-08-21T14:25:53;6.20;;;4.50;;
74373;SDS011;62809;51.090;-115.358;2022-08-21T14:28:32;6.10;;;4.60;;
74373;SDS011;62809;51.090;-115.358;2022-08-21T14:31:17;6.10;;;4.70;;
74373;SDS011;62809;51.090;-115.358;2022-08-21T14:33:48;6.20;;;4.80;;
74373;SDS011;62809;51.090;-115.358;2022-08-21T14:36:15;5.90;;;4.50;;
74373;SDS011;62809;51.090;-115.358;2022-08-21T14:38:44;6.40;;;4.80;;
74373;SDS011;62809;51.090;-115.358;2022-08-21T14:41:21;5.70;;;4.70;;
74373;SDS011;62809;51.090;-115.358;2022-08-21T14:43:53;5.70;;;4.60;;
74373;SDS011;62809;51.090;-115.358;2022-08-21T14:46:26;6.00;;;4.50;;
74373;SDS011;62809;51.090;-115.358;2022-08-21T14:48:54;6.10;;;4.60;;
74373;SDS011;62809;51.090;-115.358;2022-08-21T14:51:21;5.80;;;4.50;;
74373;SDS011;62809;51.090;-115.358;2022-08-21T14:53:48;6.30;;;4.70;;
74373;SDS011;62809;51.090;-115.358;2022-08-21T14:56:16;5.90;;;4.40;;
74373;SDS011;62809;51.090;-115.358;2022-08-21T14:58:48;5.80;;;4.80;;
74373;SDS011;62809;51.090;-115.358;2022-08-21T15:01:20;6.30;;;5.00;;
74373;SDS011;62809;51.090;-115.358;2022-08-21T15:03:50;5.80;;;4.70;;
74373;SDS011;62809;51.090;-115.358;2022-08-21T15:06:17;6.60;;;4.80;;
74373;SDS011;62809;51.090;-115.358;2022-08-21T15:08:46;6.10;;;4.80;;
74373;SDS011;62809;51.090;-115.358;2022-08-21T15:11:19;5.80;;;4.40;;
74373;SDS011;62809;51.090;-115.358;2022-08-21T15:13:55;5.80;;;4.60;;
74373;SDS011;62809;51.090;-115.358;2022-08-21T15:16:28;6.20;;;4.90;;
74373;SDS011;62809;51.090;-115.358;2022-08-21T15:18:59;6.40;;;4.60;;
74373;SDS011;62809;51.090;-115.358;2022-08-21T15:21:27;6.30;;;4.80;;
74373;SDS011;62809;51.090;-115.358;2022-08-21T15:23:54;5.80;;;4.50;;
74373;SDS011;62809;51.090;-115.358;2022-08-21T15:26:24;6.20;;;4.50;;
74373;SDS011;62809;51.090;-115.358;2022-08-21T15:28:53;5.70;;;4.50;;
74373;SDS011;62809;51.090;-115.358;2022-08-21T15:31:20;6.50;;;5.00;;
74373;SDS011;62809;51.090;-115.358;2022-08-21T15:33:51;6.50;;;4.50;;
74373;SDS011;62809;51.090;-115.358;2022-08-21T15:36:21;6.50;;;4.80;;
74373;SDS011;62809;51.090;-115.358;2022-08-21T15:38:50;5.60;;;4.60;;
74373;SDS011;62809;51.090;-115.358;2022-08-21T15:41:20;5.80;;;4.50;;
74373;SDS011;62809;51.090;-115.358;2022-08-21T15:43:52;5.70;;;4.30;;
74373;SDS011;62809;51.090;-115.358;2022-08-21T15:46:21;6.30;;;4.60;;
74373;SDS011;62809;51.090;-115.358;2022-08-21T15:48:52;6.00;;;4.70;;
74373;SDS011;62809;51.090;-115.358;2022-08-21T15:51:19;6.90;;;5.00;;
74373;SDS011;62809;51.090;-115.358;2022-08-21T15:53:46;5.90;;;4.50;;
74373;SDS011;62809;51.090;-115.358;2022-08-21T15:56:22;6.10;;;4.50;;
74373;SDS011;62809;51.090;-115.358;2022-08-21T15:59:00;6.00;;;4.50;;
74373;SDS011;62809;51.090;-115.358;2022-08-21T16:01:31;6.30;;;4.70;;